sensor_id;sensor_type;location;lat;lon;timestamp;P1;durP1;ratioP1;P2;durP2;ratioP2
49041;SDS011;34859;51.608;11.462;2023-09-18T00:00:03;4.63;;;4.40;;
49041;SDS011;34859;51.608;11.462;2023-09-18T00:02:52;5.05;;;4.75;;
49041;SDS011;34859;51.608;11.462;2023-09-18T00:05:36;4.95;;;4.65;;
49041;SDS011;34859;51.608;11.462;2023-09-18T00:08:20;9.27;;;4.13;;
49041;SDS011;34859;51.608;11.462;2023-09-18T00:11:04;5.10;;;4.80;;
49041;SDS011;34859;51.608;11.462;2023-09-18T00:13:50;5.38;;;4.97;;
49041;SDS011;34859;51.608;11.462;2023-09-18T00:16:35;5.40;;;4.83;;
49041;SDS011;34859;51.608;11.462;2023-09-18T00:19:19;6.05;;;5.43;;
49041;SDS011;34859;51.608;11.462;2023-09-18T00:22:03;9.30;;;5.47;;
49041;SDS011;34859;51.608;11.462;2023-09-18T00:24:48;9.73;;;5.80;;
49041;SDS011;34859;51.608;11.462;2023-09-18T00:27:32;5.63;;;5.13;;
49041;SDS011;34859;51.608;11.462;2023-09-18T00:30:16;7.13;;;5.28;;
49041;SDS011;34859;51.608;11.462;2023-09-18T00:33:00;5.30;;;4.90;;
49041;SDS011;34859;51.608;11.462;2023-09-18T00:35:48;5.40;;;4.90;;
49041;SDS011;34859;51.608;11.462;2023-09-18T00:38:34;7.20;;;4.82;;
49041;SDS011;34859;51.608;11.462;2023-09-18T00:41:18;5.20;;;4.77;;
49041;SDS011;34859;51.608;11.462;2023-09-18T00:44:02;6.68;;;5.35;;
49041;SDS011;34859;51.608;11.462;2023-09-18T00:46:43;7.50;;;5.13;;
49041;SDS011;34859;51.608;11.462;2023-09-18T00:49:28;5.33;;;4.93;;
49041;SDS011;34859;51.608;11.462;2023-09-18T00:52:12;4.90;;;4.53;;
49041;SDS011;34859;51.608;11.462;2023-09-18T00:54:56;6.18;;;5.40;;
49041;SDS011;34859;51.608;11.462;2023-09-18T00:57:41;5.50;;;5.10;;
49041;SDS011;34859;51.608;11.462;2023-09-18T01:00:26;5.18;;;4.78;;
49041;SDS011;34859;51.608;11.462;2023-09-18T01:03:10;6.93;;;5.18;;
49041;SDS011;34859;51.608;11.462;2023-09-18T01:05:55;6.93;;;4.15;;
49041;SDS011;34859;51.608;11.462;2023-09-18T01:08:40;4.95;;;4.28;;
49041;SDS011;34859;51.608;11.462;2023-09-18T01:11:36;5.07;;;4.45;;
49041;SDS011;34859;51.608;11.462;2023-09-18T01:14:39;4.60;;;4.00;;
49041;SDS011;34859;51.608;11.462;2023-09-18T01:17:27;5.85;;;4.10;;
49041;SDS011;34859;51.608;11.462;2023-09-18T01:20:11;5.00;;;4.70;;
49041;SDS011;34859;51.608;11.462;2023-09-18T01:22:56;6.15;;;4.90;;
49041;SDS011;34859;51.608;11.462;2023-09-18T01:25:40;5.07;;;4.67;;
49041;SDS011;34859;51.608;11.462;2023-09-18T01:28:22;4.90;;;4.57;;
49041;SDS011;34859;51.608;11.462;2023-09-18T01:31:06;6.47;;;4.27;;
49041;SDS011;34859;51.608;11.462;2023-09-18T01:33:51;7.90;;;4.35;;
49041;SDS011;34859;51.608;11.462;2023-09-18T01:36:37;8.43;;;4.53;;
49041;SDS011;34859;51.608;11.462;2023-09-18T01:39:21;4.70;;;4.28;;
49041;SDS011;34859;51.608;11.462;2023-09-18T01:42:07;4.25;;;4.05;;
49041;SDS011;34859;51.608;11.462;2023-09-18T01:44:54;7.65;;;4.60;;
49041;SDS011;34859;51.608;11.462;2023-09-18T01:47:39;5.00;;;4.60;;
49041;SDS011;34859;51.608;11.462;2023-09-18T01:50:23;4.57;;;4.20;;
49041;SDS011;34859;51.608;11.462;2023-09-18T01:53:08;4.68;;;4.22;;
49041;SDS011;34859;51.608;11.462;2023-09-18T01:55:52;4.70;;;4.40;;
49041;SDS011;34859;51.608;11.462;2023-09-18T01:58:36;4.60;;;4.20;;
49041;SDS011;34859;51.608;11.462;2023-09-18T02:01:20;5.30;;;4.07;;
49041;SDS011;34859;51.608;11.462;2023-09-18T02:04:04;6.85;;;5.03;;
49041;SDS011;34859;51.608;11.462;2023-09-18T02:06:50;5.30;;;4.57;;
49041;SDS011;34859;51.608;11.462;2023-09-18T02:09:35;4.78;;;4.07;;
49041;SDS011;34859;51.608;11.462;2023-09-18T02:12:19;6.38;;;4.32;;
49041;SDS011;34859;51.608;11.462;2023-09-18T02:15:01;5.13;;;4.82;;
49041;SDS011;34859;51.608;11.462;2023-09-18T02:17:50;4.70;;;4.28;;
49041;SDS011;34859;51.608;11.462;2023-09-18T02:20:39;6.87;;;5.00;;
49041;SDS011;34859;51.608;11.462;2023-09-18T02:23:25;4.85;;;4.53;;
49041;SDS011;34859;51.608;11.462;2023-09-18T02:26:09;4.83;;;4.43;;
49041;SDS011;34859;51.608;11.462;2023-09-18T02:28:53;4.53;;;4.22;;
49041;SDS011;34859;51.608;11.462;2023-09-18T02:31:36;5.90;;;4.53;;
49041;SDS011;34859;51.608;11.462;2023-09-18T02:34:20;5.05;;;4.75;;
49041;SDS011;34859;51.608;11.462;2023-09-18T02:37:04;4.30;;;3.97;;
49041;SDS011;34859;51.608;11.462;2023-09-18T02:39:48;4.63;;;4.30;;
49041;SDS011;34859;51.608;11.462;2023-09-18T02:42:32;4.50;;;4.20;;
49041;SDS011;34859;51.608;11.462;2023-09-18T02:45:16;6.67;;;4.80;;
49041;SDS011;34859;51.608;11.462;2023-09-18T02:48:00;5.53;;;4.90;;
49041;SDS011;34859;51.608;11.462;2023-09-18T02:50:45;8.07;;;6.00;;
49041;SDS011;34859;51.608;11.462;2023-09-18T02:53:29;5.40;;;4.93;;
49041;SDS011;34859;51.608;11.462;2023-09-18T02:56:13;4.57;;;4.27;;
49041;SDS011;34859;51.608;11.462;2023-09-18T02:58:57;4.32;;;3.97;;
49041;SDS011;34859;51.608;11.462;2023-09-18T03:01:41;5.20;;;4.67;;
49041;SDS011;34859;51.608;11.462;2023-09-18T03:04:25;9.05;;;3.97;;
49041;SDS011;34859;51.608;11.462;2023-09-18T03:07:12;4.55;;;3.75;;
49041;SDS011;34859;51.608;11.462;2023-09-18T03:09:54;4.47;;;3.92;;
49041;SDS011;34859;51.608;11.462;2023-09-18T03:12:39;5.40;;;4.90;;
49041;SDS011;34859;51.608;11.462;2023-09-18T03:15:21;9.00;;;4.30;;
49041;SDS011;34859;51.608;11.462;2023-09-18T03:18:05;4.97;;;3.97;;
49041;SDS011;34859;51.608;11.462;2023-09-18T03:20:50;5.80;;;4.18;;
49041;SDS011;34859;51.608;11.462;2023-09-18T03:23:34;4.18;;;3.97;;
49041;SDS011;34859;51.608;11.462;2023-09-18T03:26:19;5.07;;;3.80;;
49041;SDS011;34859;51.608;11.462;2023-09-18T03:29:03;6.70;;;5.03;;
49041;SDS011;34859;51.608;11.462;2023-09-18T03:31:47;4.03;;;3.72;;
49041;SDS011;34859;51.608;11.462;2023-09-18T03:34:28;4.22;;;3.90;;
49041;SDS011;34859;51.608;11.462;2023-09-18T03:37:09;5.00;;;3.95;;
49041;SDS011;34859;51.608;11.462;2023-09-18T03:39:53;5.70;;;4.20;;
49041;SDS011;34859;51.608;11.462;2023-09-18T03:42:38;4.37;;;3.97;;
49041;SDS011;34859;51.608;11.462;2023-09-18T03:45:19;4.82;;;4.20;;
49041;SDS011;34859;51.608;11.462;2023-09-18T03:48:04;4.13;;;3.92;;
49041;SDS011;34859;51.608;11.462;2023-09-18T03:50:47;3.85;;;3.60;;
49041;SDS011;34859;51.608;11.462;2023-09-18T03:53:34;4.70;;;4.30;;
49041;SDS011;34859;51.608;11.462;2023-09-18T03:56:18;5.72;;;4.00;;
49041;SDS011;34859;51.608;11.462;2023-09-18T03:59:03;6.35;;;4.10;;
49041;SDS011;34859;51.608;11.462;2023-09-18T04:01:48;6.82;;;4.22;;
49041;SDS011;34859;51.608;11.462;2023-09-18T04:04:33;3.60;;;3.40;;
49041;SDS011;34859;51.608;11.462;2023-09-18T04:07:17;4.20;;;3.90;;
49041;SDS011;34859;51.608;11.462;2023-09-18T04:10:03;6.03;;;4.53;;
49041;SDS011;34859;51.608;11.462;2023-09-18T04:12:49;4.65;;;3.83;;
49041;SDS011;34859;51.608;11.462;2023-09-18T04:15:37;6.32;;;4.40;;
49041;SDS011;34859;51.608;11.462;2023-09-18T04:18:22;4.20;;;3.85;;
49041;SDS011;34859;51.608;11.462;2023-09-18T04:21:03;8.68;;;4.63;;
49041;SDS011;34859;51.608;11.462;2023-09-18T04:23:47;6.70;;;4.43;;
49041;SDS011;34859;51.608;11.462;2023-09-18T04:26:31;4.95;;;4.55;;
49041;SDS011;34859;51.608;11.462;2023-09-18T04:29:17;6.57;;;5.20;;
49041;SDS011;34859;51.608;11.462;2023-09-18T04:32:02;6.55;;;5.43;;
49041;SDS011;34859;51.608;11.462;2023-09-18T04:34:47;6.03;;;5.45;;
49041;SDS011;34859;51.608;11.462;2023-09-18T04:37:31;5.80;;;5.40;;
49041;SDS011;34859;51.608;11.462;2023-09-18T04:40:19;4.47;;;4.25;;
49041;SDS011;34859;51.608;11.462;2023-09-18T04:43:03;7.20;;;5.93;;
49041;SDS011;34859;51.608;11.462;2023-09-18T04:45:47;5.93;;;5.38;;
49041;SDS011;34859;51.608;11.462;2023-09-18T04:48:28;8.90;;;5.28;;
49041;SDS011;34859;51.608;11.462;2023-09-18T04:53:57;5.35;;;4.82;;
49041;SDS011;34859;51.608;11.462;2023-09-18T04:56:39;4.95;;;4.55;;
49041;SDS011;34859;51.608;11.462;2023-09-18T04:59:23;4.95;;;4.45;;
49041;SDS011;34859;51.608;11.462;2023-09-18T05:02:07;4.93;;;4.35;;
49041;SDS011;34859;51.608;11.462;2023-09-18T05:04:55;11.10;;;4.30;;
49041;SDS011;34859;51.608;11.462;2023-09-18T05:07:39;6.43;;;4.20;;
49041;SDS011;34859;51.608;11.462;2023-09-18T05:10:24;6.43;;;4.80;;
49041;SDS011;34859;51.608;11.462;2023-09-18T05:13:08;7.23;;;5.77;;
49041;SDS011;34859;51.608;11.462;2023-09-18T05:15:52;7.57;;;5.10;;
49041;SDS011;34859;51.608;11.462;2023-09-18T05:18:36;8.60;;;5.00;;
49041;SDS011;34859;51.608;11.462;2023-09-18T05:21:21;5.88;;;4.95;;
49041;SDS011;34859;51.608;11.462;2023-09-18T05:24:08;5.80;;;5.30;;
49041;SDS011;34859;51.608;11.462;2023-09-18T05:26:53;6.18;;;4.88;;
49041;SDS011;34859;51.608;11.462;2023-09-18T05:29:37;6.95;;;5.22;;
49041;SDS011;34859;51.608;11.462;2023-09-18T05:32:21;5.43;;;5.03;;
49041;SDS011;34859;51.608;11.462;2023-09-18T05:35:05;8.73;;;4.90;;
49041;SDS011;34859;51.608;11.462;2023-09-18T05:37:50;5.53;;;5.03;;
49041;SDS011;34859;51.608;11.462;2023-09-18T05:40:34;5.32;;;4.15;;
49041;SDS011;34859;51.608;11.462;2023-09-18T05:43:19;4.87;;;4.57;;
49041;SDS011;34859;51.608;11.462;2023-09-18T05:46:03;5.45;;;5.10;;
49041;SDS011;34859;51.608;11.462;2023-09-18T05:48:47;5.27;;;4.97;;
49041;SDS011;34859;51.608;11.462;2023-09-18T05:51:29;5.30;;;5.00;;
49041;SDS011;34859;51.608;11.462;2023-09-18T05:54:14;5.95;;;4.78;;
49041;SDS011;34859;51.608;11.462;2023-09-18T05:56:57;5.22;;;4.70;;
49041;SDS011;34859;51.608;11.462;2023-09-18T05:59:42;8.10;;;4.90;;
49041;SDS011;34859;51.608;11.462;2023-09-18T06:02:29;7.45;;;5.78;;
49041;SDS011;34859;51.608;11.462;2023-09-18T06:05:13;6.07;;;5.55;;
49041;SDS011;34859;51.608;11.462;2023-09-18T06:07:59;5.65;;;5.22;;
49041;SDS011;34859;51.608;11.462;2023-09-18T06:10:44;6.88;;;5.95;;
49041;SDS011;34859;51.608;11.462;2023-09-18T06:13:28;7.45;;;5.57;;
49041;SDS011;34859;51.608;11.462;2023-09-18T06:16:12;45.55;;;15.00;;
49041;SDS011;34859;51.608;11.462;2023-09-18T06:18:56;31.35;;;13.10;;
49041;SDS011;34859;51.608;11.462;2023-09-18T06:21:41;19.20;;;11.02;;
49041;SDS011;34859;51.608;11.462;2023-09-18T06:24:25;18.00;;;9.18;;
49041;SDS011;34859;51.608;11.462;2023-09-18T06:27:07;11.15;;;8.95;;
49041;SDS011;34859;51.608;11.462;2023-09-18T06:29:51;10.25;;;9.45;;
49041;SDS011;34859;51.608;11.462;2023-09-18T06:32:35;10.47;;;9.50;;
49041;SDS011;34859;51.608;11.462;2023-09-18T06:35:20;11.40;;;10.23;;
49041;SDS011;34859;51.608;11.462;2023-09-18T06:38:02;10.73;;;9.63;;
49041;SDS011;34859;51.608;11.462;2023-09-18T06:40:43;10.15;;;9.35;;
49041;SDS011;34859;51.608;11.462;2023-09-18T06:43:27;9.95;;;8.60;;
49041;SDS011;34859;51.608;11.462;2023-09-18T06:46:11;9.82;;;9.00;;
49041;SDS011;34859;51.608;11.462;2023-09-18T06:48:56;9.07;;;8.48;;
49041;SDS011;34859;51.608;11.462;2023-09-18T06:51:40;8.77;;;7.97;;
49041;SDS011;34859;51.608;11.462;2023-09-18T06:54:24;8.35;;;7.50;;
49041;SDS011;34859;51.608;11.462;2023-09-18T06:57:08;7.57;;;6.87;;
49041;SDS011;34859;51.608;11.462;2023-09-18T06:59:49;6.97;;;5.75;;
49041;SDS011;34859;51.608;11.462;2023-09-18T07:02:34;9.77;;;6.82;;
49041;SDS011;34859;51.608;11.462;2023-09-18T07:05:18;6.93;;;6.28;;
49041;SDS011;34859;51.608;11.462;2023-09-18T07:08:02;6.43;;;6.03;;
49041;SDS011;34859;51.608;11.462;2023-09-18T07:10:51;6.05;;;5.53;;
49041;SDS011;34859;51.608;11.462;2023-09-18T07:13:35;7.28;;;6.60;;
49041;SDS011;34859;51.608;11.462;2023-09-18T07:16:20;5.90;;;5.50;;
49041;SDS011;34859;51.608;11.462;2023-09-18T07:19:04;6.63;;;6.10;;
49041;SDS011;34859;51.608;11.462;2023-09-18T07:21:45;6.45;;;6.03;;
49041;SDS011;34859;51.608;11.462;2023-09-18T07:24:29;5.70;;;5.10;;
49041;SDS011;34859;51.608;11.462;2023-09-18T07:27:13;7.13;;;5.30;;
49041;SDS011;34859;51.608;11.462;2023-09-18T07:29:55;6.03;;;5.43;;
49041;SDS011;34859;51.608;11.462;2023-09-18T07:32:40;7.85;;;5.50;;
49041;SDS011;34859;51.608;11.462;2023-09-18T07:35:25;5.45;;;4.95;;
49041;SDS011;34859;51.608;11.462;2023-09-18T07:38:07;7.75;;;5.65;;
49041;SDS011;34859;51.608;11.462;2023-09-18T07:40:51;6.20;;;5.45;;
49041;SDS011;34859;51.608;11.462;2023-09-18T07:43:35;5.67;;;5.20;;
49041;SDS011;34859;51.608;11.462;2023-09-18T07:46:20;9.63;;;5.18;;
49041;SDS011;34859;51.608;11.462;2023-09-18T07:49:04;5.40;;;4.90;;
49041;SDS011;34859;51.608;11.462;2023-09-18T07:51:48;5.57;;;5.27;;
49041;SDS011;34859;51.608;11.462;2023-09-18T07:54:32;5.83;;;5.40;;
49041;SDS011;34859;51.608;11.462;2023-09-18T07:57:16;6.68;;;6.00;;
49041;SDS011;34859;51.608;11.462;2023-09-18T07:59:58;9.23;;;6.82;;
49041;SDS011;34859;51.608;11.462;2023-09-18T08:02:42;8.10;;;6.60;;
49041;SDS011;34859;51.608;11.462;2023-09-18T08:05:27;6.68;;;6.07;;
49041;SDS011;34859;51.608;11.462;2023-09-18T08:08:12;6.05;;;5.55;;
49041;SDS011;34859;51.608;11.462;2023-09-18T08:10:56;6.60;;;6.25;;
49041;SDS011;34859;51.608;11.462;2023-09-18T08:13:41;6.80;;;6.13;;
49041;SDS011;34859;51.608;11.462;2023-09-18T08:16:26;6.68;;;6.10;;
49041;SDS011;34859;51.608;11.462;2023-09-18T08:19:14;8.68;;;5.55;;
49041;SDS011;34859;51.608;11.462;2023-09-18T08:22:00;7.15;;;5.70;;
49041;SDS011;34859;51.608;11.462;2023-09-18T08:24:45;7.47;;;5.13;;
49041;SDS011;34859;51.608;11.462;2023-09-18T08:27:30;5.60;;;5.10;;
49041;SDS011;34859;51.608;11.462;2023-09-18T08:30:14;5.53;;;5.20;;
49041;SDS011;34859;51.608;11.462;2023-09-18T08:32:59;6.05;;;5.75;;
49041;SDS011;34859;51.608;11.462;2023-09-18T08:35:43;5.80;;;5.38;;
49041;SDS011;34859;51.608;11.462;2023-09-18T08:38:27;8.38;;;5.45;;
49041;SDS011;34859;51.608;11.462;2023-09-18T08:41:11;6.80;;;5.13;;
49041;SDS011;34859;51.608;11.462;2023-09-18T08:44:01;8.85;;;5.00;;
49041;SDS011;34859;51.608;11.462;2023-09-18T08:46:47;6.60;;;5.22;;
49041;SDS011;34859;51.608;11.462;2023-09-18T08:49:31;4.65;;;4.25;;
49041;SDS011;34859;51.608;11.462;2023-09-18T08:52:16;5.47;;;4.30;;
49041;SDS011;34859;51.608;11.462;2023-09-18T08:55:02;7.22;;;4.55;;
49041;SDS011;34859;51.608;11.462;2023-09-18T08:57:47;4.25;;;3.78;;
49041;SDS011;34859;51.608;11.462;2023-09-18T09:00:32;4.63;;;3.25;;
49041;SDS011;34859;51.608;11.462;2023-09-18T09:03:19;3.80;;;3.42;;
49041;SDS011;34859;51.608;11.462;2023-09-18T09:06:03;4.30;;;3.80;;
49041;SDS011;34859;51.608;11.462;2023-09-18T09:08:49;3.88;;;3.40;;
49041;SDS011;34859;51.608;11.462;2023-09-18T09:11:34;4.47;;;3.95;;
49041;SDS011;34859;51.608;11.462;2023-09-18T09:14:19;4.70;;;3.75;;
49041;SDS011;34859;51.608;11.462;2023-09-18T09:17:11;4.07;;;3.70;;
49041;SDS011;34859;51.608;11.462;2023-09-18T09:20:12;3.88;;;3.38;;
49041;SDS011;34859;51.608;11.462;2023-09-18T09:23:04;6.07;;;3.70;;
49041;SDS011;34859;51.608;11.462;2023-09-18T09:25:50;4.43;;;3.88;;
49041;SDS011;34859;51.608;11.462;2023-09-18T09:28:34;5.00;;;3.72;;
49041;SDS011;34859;51.608;11.462;2023-09-18T09:31:25;5.83;;;4.37;;
49041;SDS011;34859;51.608;11.462;2023-09-18T09:34:11;8.70;;;3.50;;
49041;SDS011;34859;51.608;11.462;2023-09-18T09:36:53;4.10;;;3.80;;
49041;SDS011;34859;51.608;11.462;2023-09-18T09:39:51;4.25;;;4.00;;
49041;SDS011;34859;51.608;11.462;2023-09-18T09:42:39;5.47;;;3.70;;
49041;SDS011;34859;51.608;11.462;2023-09-18T09:45:24;6.30;;;4.10;;
49041;SDS011;34859;51.608;11.462;2023-09-18T09:48:08;5.43;;;4.50;;
49041;SDS011;34859;51.608;11.462;2023-09-18T09:50:56;7.27;;;4.87;;
49041;SDS011;34859;51.608;11.462;2023-09-18T09:53:45;5.18;;;4.28;;
49041;SDS011;34859;51.608;11.462;2023-09-18T09:59:34;4.00;;;3.63;;
49041;SDS011;34859;51.608;11.462;2023-09-18T10:02:18;6.47;;;3.90;;
49041;SDS011;34859;51.608;11.462;2023-09-18T10:05:06;7.70;;;3.50;;
49041;SDS011;34859;51.608;11.462;2023-09-18T10:07:51;4.38;;;3.70;;
49041;SDS011;34859;51.608;11.462;2023-09-18T10:10:37;9.40;;;3.67;;
49041;SDS011;34859;51.608;11.462;2023-09-18T10:13:32;5.22;;;3.35;;
49041;SDS011;34859;51.608;11.462;2023-09-18T10:16:24;8.23;;;3.70;;
49041;SDS011;34859;51.608;11.462;2023-09-18T10:19:14;5.05;;;3.17;;
49041;SDS011;34859;51.608;11.462;2023-09-18T10:25:01;4.22;;;3.65;;
49041;SDS011;34859;51.608;11.462;2023-09-18T10:27:53;5.85;;;4.60;;
49041;SDS011;34859;51.608;11.462;2023-09-18T10:30:41;6.72;;;3.38;;
49041;SDS011;34859;51.608;11.462;2023-09-18T10:33:26;3.83;;;3.25;;
49041;SDS011;34859;51.608;11.462;2023-09-18T10:36:12;5.18;;;3.13;;
49041;SDS011;34859;51.608;11.462;2023-09-18T10:38:54;4.25;;;3.30;;
49041;SDS011;34859;51.608;11.462;2023-09-18T10:41:40;7.25;;;3.08;;
49041;SDS011;34859;51.608;11.462;2023-09-18T10:44:22;5.28;;;3.25;;
49041;SDS011;34859;51.608;11.462;2023-09-18T10:47:08;4.75;;;3.05;;
49041;SDS011;34859;51.608;11.462;2023-09-18T10:49:55;4.60;;;3.00;;
49041;SDS011;34859;51.608;11.462;2023-09-18T10:52:42;4.63;;;3.33;;
49041;SDS011;34859;51.608;11.462;2023-09-18T10:55:27;5.78;;;3.05;;
49041;SDS011;34859;51.608;11.462;2023-09-18T10:58:12;4.72;;;3.13;;
49041;SDS011;34859;51.608;11.462;2023-09-18T11:01:10;8.75;;;3.20;;
49041;SDS011;34859;51.608;11.462;2023-09-18T11:04:03;2.97;;;2.70;;
49041;SDS011;34859;51.608;11.462;2023-09-18T11:09:42;6.13;;;2.97;;
49041;SDS011;34859;51.608;11.462;2023-09-18T11:12:44;8.23;;;2.72;;
49041;SDS011;34859;51.608;11.462;2023-09-18T11:15:31;7.20;;;2.95;;
49041;SDS011;34859;51.608;11.462;2023-09-18T11:18:17;6.47;;;2.80;;
49041;SDS011;34859;51.608;11.462;2023-09-18T11:21:09;5.85;;;2.83;;
49041;SDS011;34859;51.608;11.462;2023-09-18T11:23:59;6.00;;;2.70;;
49041;SDS011;34859;51.608;11.462;2023-09-18T11:26:46;5.25;;;2.70;;
49041;SDS011;34859;51.608;11.462;2023-09-18T11:29:31;8.40;;;2.92;;
49041;SDS011;34859;51.608;11.462;2023-09-18T11:32:37;4.53;;;2.60;;
49041;SDS011;34859;51.608;11.462;2023-09-18T11:35:23;3.90;;;2.30;;
49041;SDS011;34859;51.608;11.462;2023-09-18T11:38:09;8.45;;;2.88;;
49041;SDS011;34859;51.608;11.462;2023-09-18T11:40:54;5.50;;;3.15;;
49041;SDS011;34859;51.608;11.462;2023-09-18T11:43:40;5.55;;;2.28;;
49041;SDS011;34859;51.608;11.462;2023-09-18T11:46:24;6.67;;;2.90;;
49041;SDS011;34859;51.608;11.462;2023-09-18T11:49:12;5.15;;;2.22;;
49041;SDS011;34859;51.608;11.462;2023-09-18T11:51:58;4.80;;;2.65;;
49041;SDS011;34859;51.608;11.462;2023-09-18T11:54:43;4.78;;;2.75;;
49041;SDS011;34859;51.608;11.462;2023-09-18T11:57:34;6.90;;;2.60;;
49041;SDS011;34859;51.608;11.462;2023-09-18T12:00:19;4.75;;;2.30;;
49041;SDS011;34859;51.608;11.462;2023-09-18T12:03:18;6.75;;;2.50;;
49041;SDS011;34859;51.608;11.462;2023-09-18T12:06:10;5.18;;;2.47;;
49041;SDS011;34859;51.608;11.462;2023-09-18T12:08:57;3.92;;;2.00;;
49041;SDS011;34859;51.608;11.462;2023-09-18T12:11:41;5.90;;;2.50;;
49041;SDS011;34859;51.608;11.462;2023-09-18T12:14:25;2.10;;;1.90;;
49041;SDS011;34859;51.608;11.462;2023-09-18T12:17:14;5.70;;;2.50;;
49041;SDS011;34859;51.608;11.462;2023-09-18T12:19:58;3.90;;;1.88;;
49041;SDS011;34859;51.608;11.462;2023-09-18T12:22:46;3.07;;;2.40;;
49041;SDS011;34859;51.608;11.462;2023-09-18T12:25:34;8.07;;;2.47;;
49041;SDS011;34859;51.608;11.462;2023-09-18T12:28:15;4.43;;;2.17;;
49041;SDS011;34859;51.608;11.462;2023-09-18T12:31:01;8.18;;;2.28;;
49041;SDS011;34859;51.608;11.462;2023-09-18T12:33:48;6.63;;;2.10;;
49041;SDS011;34859;51.608;11.462;2023-09-18T12:36:33;4.28;;;1.80;;
49041;SDS011;34859;51.608;11.462;2023-09-18T12:39:18;3.72;;;1.90;;
49041;SDS011;34859;51.608;11.462;2023-09-18T12:42:04;4.72;;;1.90;;
49041;SDS011;34859;51.608;11.462;2023-09-18T12:44:49;5.60;;;1.60;;
49041;SDS011;34859;51.608;11.462;2023-09-18T12:47:35;6.43;;;1.95;;
49041;SDS011;34859;51.608;11.462;2023-09-18T12:50:22;3.20;;;2.55;;
49041;SDS011;34859;51.608;11.462;2023-09-18T12:53:11;3.70;;;2.50;;
49041;SDS011;34859;51.608;11.462;2023-09-18T12:55:53;5.03;;;1.80;;
49041;SDS011;34859;51.608;11.462;2023-09-18T12:58:48;6.80;;;1.70;;
49041;SDS011;34859;51.608;11.462;2023-09-18T13:01:32;4.18;;;1.67;;
49041;SDS011;34859;51.608;11.462;2023-09-18T13:04:17;8.98;;;2.15;;
49041;SDS011;34859;51.608;11.462;2023-09-18T13:07:08;3.57;;;1.93;;
49041;SDS011;34859;51.608;11.462;2023-09-18T13:10:02;6.88;;;2.05;;
49041;SDS011;34859;51.608;11.462;2023-09-18T13:12:49;5.75;;;1.88;;
49041;SDS011;34859;51.608;11.462;2023-09-18T13:15:31;4.50;;;1.52;;
49041;SDS011;34859;51.608;11.462;2023-09-18T13:18:16;4.82;;;1.70;;
49041;SDS011;34859;51.608;11.462;2023-09-18T13:21:12;7.13;;;1.80;;
49041;SDS011;34859;51.608;11.462;2023-09-18T13:23:57;7.30;;;1.80;;
49041;SDS011;34859;51.608;11.462;2023-09-18T13:26:43;6.80;;;1.98;;
49041;SDS011;34859;51.608;11.462;2023-09-18T13:29:24;4.60;;;2.15;;
49041;SDS011;34859;51.608;11.462;2023-09-18T13:32:08;3.38;;;1.70;;
49041;SDS011;34859;51.608;11.462;2023-09-18T13:34:53;2.33;;;1.23;;
49041;SDS011;34859;51.608;11.462;2023-09-18T13:37:37;5.88;;;2.17;;
49041;SDS011;34859;51.608;11.462;2023-09-18T13:40:19;8.63;;;2.00;;
49041;SDS011;34859;51.608;11.462;2023-09-18T13:43:03;4.85;;;2.30;;
49041;SDS011;34859;51.608;11.462;2023-09-18T13:45:49;8.85;;;1.95;;
49041;SDS011;34859;51.608;11.462;2023-09-18T13:48:37;7.80;;;1.70;;
49041;SDS011;34859;51.608;11.462;2023-09-18T13:51:22;3.25;;;1.60;;
49041;SDS011;34859;51.608;11.462;2023-09-18T13:54:06;4.55;;;2.13;;
49041;SDS011;34859;51.608;11.462;2023-09-18T13:56:51;6.53;;;1.80;;
49041;SDS011;34859;51.608;11.462;2023-09-18T13:59:35;5.18;;;2.05;;
49041;SDS011;34859;51.608;11.462;2023-09-18T14:02:21;3.53;;;2.05;;
49041;SDS011;34859;51.608;11.462;2023-09-18T14:05:08;9.50;;;1.70;;
49041;SDS011;34859;51.608;11.462;2023-09-18T14:07:53;7.75;;;1.85;;
49041;SDS011;34859;51.608;11.462;2023-09-18T14:10:40;6.65;;;1.85;;
49041;SDS011;34859;51.608;11.462;2023-09-18T14:13:23;8.82;;;2.30;;
49041;SDS011;34859;51.608;11.462;2023-09-18T14:16:07;3.70;;;1.47;;
49041;SDS011;34859;51.608;11.462;2023-09-18T14:18:52;6.60;;;2.30;;
49041;SDS011;34859;51.608;11.462;2023-09-18T14:21:37;4.20;;;2.30;;
49041;SDS011;34859;51.608;11.462;2023-09-18T14:27:09;4.40;;;2.25;;
49041;SDS011;34859;51.608;11.462;2023-09-18T14:29:56;6.55;;;2.10;;
49041;SDS011;34859;51.608;11.462;2023-09-18T14:32:40;4.63;;;2.28;;
49041;SDS011;34859;51.608;11.462;2023-09-18T14:35:22;4.45;;;2.40;;
49041;SDS011;34859;51.608;11.462;2023-09-18T14:40:51;7.18;;;3.42;;
49041;SDS011;34859;51.608;11.462;2023-09-18T14:43:35;8.27;;;2.97;;
49041;SDS011;34859;51.608;11.462;2023-09-18T14:46:16;7.82;;;3.47;;
49041;SDS011;34859;51.608;11.462;2023-09-18T14:49:00;8.33;;;2.30;;
49041;SDS011;34859;51.608;11.462;2023-09-18T14:51:45;4.95;;;2.70;;
49041;SDS011;34859;51.608;11.462;2023-09-18T14:54:29;10.02;;;2.63;;
49041;SDS011;34859;51.608;11.462;2023-09-18T14:57:11;10.50;;;3.30;;
49041;SDS011;34859;51.608;11.462;2023-09-18T14:59:55;5.50;;;3.08;;
49041;SDS011;34859;51.608;11.462;2023-09-18T15:02:39;5.43;;;2.70;;
49041;SDS011;34859;51.608;11.462;2023-09-18T15:05:23;6.73;;;3.13;;
49041;SDS011;34859;51.608;11.462;2023-09-18T15:08:08;3.97;;;2.50;;
49041;SDS011;34859;51.608;11.462;2023-09-18T15:10:49;5.63;;;2.58;;
49041;SDS011;34859;51.608;11.462;2023-09-18T15:13:33;3.57;;;2.70;;
49041;SDS011;34859;51.608;11.462;2023-09-18T15:16:18;2.75;;;2.53;;
49041;SDS011;34859;51.608;11.462;2023-09-18T15:19:03;4.43;;;2.67;;
49041;SDS011;34859;51.608;11.462;2023-09-18T15:21:49;5.22;;;2.80;;
49041;SDS011;34859;51.608;11.462;2023-09-18T15:24:36;4.68;;;2.67;;
49041;SDS011;34859;51.608;11.462;2023-09-18T15:27:39;4.97;;;2.20;;
49041;SDS011;34859;51.608;11.462;2023-09-18T15:30:23;4.33;;;2.20;;
49041;SDS011;34859;51.608;11.462;2023-09-18T15:33:08;7.30;;;3.10;;
49041;SDS011;34859;51.608;11.462;2023-09-18T15:35:49;8.50;;;2.60;;
49041;SDS011;34859;51.608;11.462;2023-09-18T15:38:30;3.63;;;2.80;;
49041;SDS011;34859;51.608;11.462;2023-09-18T15:41:14;6.15;;;2.35;;
49041;SDS011;34859;51.608;11.462;2023-09-18T15:43:58;7.00;;;2.58;;
49041;SDS011;34859;51.608;11.462;2023-09-18T15:46:43;3.95;;;2.70;;
49041;SDS011;34859;51.608;11.462;2023-09-18T15:49:24;6.15;;;2.67;;
49041;SDS011;34859;51.608;11.462;2023-09-18T15:52:09;6.75;;;2.40;;
49041;SDS011;34859;51.608;11.462;2023-09-18T15:54:53;5.83;;;2.30;;
49041;SDS011;34859;51.608;11.462;2023-09-18T15:57:38;5.33;;;3.00;;
49041;SDS011;34859;51.608;11.462;2023-09-18T16:00:24;2.83;;;2.33;;
49041;SDS011;34859;51.608;11.462;2023-09-18T16:03:08;4.53;;;2.30;;
49041;SDS011;34859;51.608;11.462;2023-09-18T16:05:52;4.17;;;2.33;;
49041;SDS011;34859;51.608;11.462;2023-09-18T16:08:34;4.15;;;2.25;;
49041;SDS011;34859;51.608;11.462;2023-09-18T16:11:19;7.53;;;2.15;;
49041;SDS011;34859;51.608;11.462;2023-09-18T16:14:03;2.30;;;1.90;;
49041;SDS011;34859;51.608;11.462;2023-09-18T16:16:47;3.50;;;1.70;;
49041;SDS011;34859;51.608;11.462;2023-09-18T16:19:31;5.60;;;2.43;;
49041;SDS011;34859;51.608;11.462;2023-09-18T16:22:16;2.08;;;1.83;;
49041;SDS011;34859;51.608;11.462;2023-09-18T16:25:00;4.53;;;2.35;;
49041;SDS011;34859;51.608;11.462;2023-09-18T16:27:44;3.20;;;1.75;;
49041;SDS011;34859;51.608;11.462;2023-09-18T16:30:28;2.80;;;1.90;;
49041;SDS011;34859;51.608;11.462;2023-09-18T16:33:09;3.38;;;1.50;;
49041;SDS011;34859;51.608;11.462;2023-09-18T16:35:54;2.88;;;1.63;;